Time;durP1;ratioP1;P1;durP2;ratioP2;P2;SDS_P1;SDS_P2;PMS_P1;PMS_P2;Temp;Humidity;BMP_temperature;BMP_pressure;BME280_temperature;BME280_humidity;BME280_pressure;Samples;Min_cycle;Max_cycle;Signal;HPM_P1;HPM_P2
2022/10/10 00:03:34;;;;;;;8.40;2.55;;;;;;;;;;10533906;28;20019;-47
2022/10/10 00:08:35;;;;;;;2.85;2.30;;;;;;;;;;10533765;28;20024;-48
2022/10/10 00:13:35;;;;;;;3.83;2.50;;;;;;;;;;10533916;28;20050;-49
2022/10/10 00:18:36;;;;;;;9.43;2.40;;;;;;;;;;10533504;28;20065;-47
2022/10/10 00:23:36;;;;;;;5.78;2.47;;;;;;;;;;10533395;28;20024;-46
2022/10/10 00:28:37;;;;;;;3.93;2.53;;;;;;;;;;10532989;28;20052;-50
2022/10/10 00:33:37;;;;;;;4.55;2.40;;;;;;;;;;10533202;28;21009;-47
2022/10/10 00:38:37;;;;;;;5.22;2.13;;;;;;;;;;10533626;28;20085;-47
2022/10/10 00:43:38;;;;;;;3.88;2.25;;;;;;;;;;10533523;28;20032;-46
2022/10/10 00:48:39;;;;;;;4.43;2.30;;;;;;;;;;10532868;28;20035;-47
2022/10/10 00:53:41;;;;;;;3.50;2.17;;;;;;;;;;10533154;28;20070;-48
2022/10/10 00:58:45;;;;;;;4.35;2.67;;;;;;;;;;10532773;28;20025;-50
2022/10/10 01:03:45;;;;;;;3.13;2.10;;;;;;;;;;10532667;28;20389;-47
2022/10/10 01:08:45;;;;;;;11.07;2.38;;;;;;;;;;10533032;28;20107;-46
2022/10/10 01:13:54;;;;;;;4.05;2.28;;;;;;;;;;10538482;28;20421;-45
2022/10/10 01:19:19;;;;;;;4.50;2.25;;;;;;;;;;10541163;28;20040;-46
2022/10/10 01:24:38;;;;;;;3.35;2.10;;;;;;;;;;10539711;28;20020;-49
2022/10/10 01:29:44;;;;;;;3.30;2.38;;;;;;;;;;10539790;28;20076;-47
2022/10/10 01:34:44;;;;;;;4.38;1.90;;;;;;;;;;10539583;28;20107;-51
2022/10/10 01:39:50;;;;;;;3.80;2.05;;;;;;;;;;10539566;28;20114;-50
2022/10/10 01:44:52;;;;;;;3.15;2.30;;;;;;;;;;10540004;28;20032;-47
2022/10/10 01:49:55;;;;;;;7.47;2.22;;;;;;;;;;10539657;28;20028;-50
2022/10/10 01:55:01;;;;;;;2.92;1.90;;;;;;;;;;10538942;28;20051;-47
2022/10/10 02:00:04;;;;;;;6.05;2.40;;;;;;;;;;10538995;28;20028;-48
2022/10/10 02:05:04;;;;;;;2.67;1.95;;;;;;;;;;10539144;28;20028;-48
2022/10/10 02:10:06;;;;;;;5.65;1.90;;;;;;;;;;10537832;28;20096;-46
2022/10/10 02:15:13;;;;;;;3.97;1.92;;;;;;;;;;10538191;28;20166;-47
2022/10/10 02:20:16;;;;;;;10.00;2.72;;;;;;;;;;10538201;28;20459;-47
2022/10/10 02:25:20;;;;;;;2.28;1.92;;;;;;;;;;10537320;28;20023;-47
2022/10/10 02:30:20;;;;;;;2.53;1.83;;;;;;;;;;10537345;28;20109;-47
2022/10/10 02:35:29;;;;;;;3.22;2.10;;;;;;;;;;10537278;28;20085;-47
2022/10/10 02:40:30;;;;;;;2.28;1.90;;;;;;;;;;10537807;28;20042;-48
2022/10/10 02:45:32;;;;;;;4.47;1.80;;;;;;;;;;10537415;28;20055;-50
2022/10/10 02:50:32;;;;;;;2.00;1.85;;;;;;;;;;10537744;28;20036;-47
2022/10/10 02:55:33;;;;;;;4.88;2.00;;;;;;;;;;10536597;28;20415;-51
2022/10/10 03:00:33;;;;;;;2.05;1.85;;;;;;;;;;10536350;28;20024;-48
2022/10/10 03:05:33;;;;;;;2.30;1.95;;;;;;;;;;10536198;28;20024;-47
2022/10/10 03:10:34;;;;;;;6.60;1.75;;;;;;;;;;10536483;28;20042;-48
2022/10/10 03:15:34;;;;;;;1.80;1.60;;;;;;;;;;10535656;28;20540;-47
2022/10/10 03:20:34;;;;;;;2.53;2.05;;;;;;;;;;10535650;28;20036;-46
2022/10/10 03:25:38;;;;;;;4.32;2.00;;;;;;;;;;10535367;28;20024;-47
2022/10/10 03:30:39;;;;;;;2.67;1.92;;;;;;;;;;10534883;28;20059;-46
2022/10/10 03:35:39;;;;;;;2.28;1.77;;;;;;;;;;10534297;28;20028;-46
2022/10/10 03:40:40;;;;;;;2.60;2.00;;;;;;;;;;10534818;28;20020;-47
2022/10/10 03:45:42;;;;;;;2.75;1.98;;;;;;;;;;10535082;28;20024;-48
2022/10/10 03:50:42;;;;;;;2.72;1.45;;;;;;;;;;10534386;28;20379;-47
2022/10/10 03:55:43;;;;;;;2.60;1.77;;;;;;;;;;10534033;28;20027;-48
2022/10/10 04:00:43;;;;;;;3.15;1.83;;;;;;;;;;10534546;28;20468;-48
2022/10/10 04:05:43;;;;;;;2.03;1.58;;;;;;;;;;10534281;28;20417;-47
2022/10/10 04:10:46;;;;;;;2.95;1.80;;;;;;;;;;10533703;28;20028;-47
2022/10/10 04:15:50;;;;;;;2.67;1.75;;;;;;;;;;10534059;28;20024;-49
2022/10/10 04:20:50;;;;;;;1.45;1.35;;;;;;;;;;10533531;28;20102;-48
2022/10/10 04:25:51;;;;;;;7.90;1.93;;;;;;;;;;10533310;28;20111;-47
2022/10/10 04:30:52;;;;;;;2.17;1.70;;;;;;;;;;10533050;28;20083;-46
2022/10/10 04:35:52;;;;;;;4.35;1.83;;;;;;;;;;10533228;28;20045;-49
2022/10/10 04:40:52;;;;;;;2.70;1.60;;;;;;;;;;10533102;28;20024;-48
2022/10/10 04:45:55;;;;;;;2.00;1.77;;;;;;;;;;10536997;28;20496;-49
2022/10/10 04:50:56;;;;;;;3.20;1.80;;;;;;;;;;10541917;28;20084;-50
2022/10/10 04:55:56;;;;;;;6.38;2.08;;;;;;;;;;10541319;28;20024;-47
2022/10/10 05:00:57;;;;;;;1.88;1.70;;;;;;;;;;10540315;28;20034;-45
2022/10/10 05:05:57;;;;;;;7.93;1.50;;;;;;;;;;10540924;28;20032;-48
2022/10/10 05:10:57;;;;;;;3.85;2.03;;;;;;;;;;10541037;28;20031;-47
2022/10/10 05:15:59;;;;;;;1.88;1.67;;;;;;;;;;10540231;28;20364;-48
2022/10/10 05:20:59;;;;;;;3.83;2.10;;;;;;;;;;10540959;28;20103;-48
2022/10/10 05:25:59;;;;;;;8.13;1.90;;;;;;;;;;10539867;28;20020;-46
2022/10/10 05:30:59;;;;;;;29.75;2.53;;;;;;;;;;10539805;28;20110;-46
2022/10/10 05:36:07;;;;;;;12.70;2.20;;;;;;;;;;10539159;28;20382;-52
2022/10/10 05:41:08;;;;;;;8.82;2.35;;;;;;;;;;10538943;28;20239;-50
2022/10/10 05:46:08;;;;;;;6.80;1.80;;;;;;;;;;10538568;28;20578;-54
2022/10/10 05:51:08;;;;;;;4.57;1.75;;;;;;;;;;10538418;28;20456;-49
2022/10/10 05:56:10;;;;;;;11.13;2.45;;;;;;;;;;10537985;28;20038;-46
2022/10/10 06:01:10;;;;;;;12.35;2.72;;;;;;;;;;10537759;28;20064;-48
2022/10/10 06:06:11;;;;;;;14.73;3.60;;;;;;;;;;10537404;28;20051;-46
2022/10/10 06:11:11;;;;;;;10.80;2.92;;;;;;;;;;10536386;28;20487;-44
2022/10/10 06:16:11;;;;;;;8.80;2.55;;;;;;;;;;10538262;28;20028;-47
2022/10/10 06:21:12;;;;;;;12.52;2.78;;;;;;;;;;10538282;28;20031;-44
2022/10/10 06:26:12;;;;;;;19.80;3.20;;;;;;;;;;10537812;28;20028;-49
2022/10/10 06:31:13;;;;;;;12.67;2.63;;;;;;;;;;10537130;28;20129;-44
2022/10/10 06:36:14;;;;;;;9.07;3.15;;;;;;;;;;10537180;28;20024;-47
2022/10/10 06:41:14;;;;;;;6.72;2.60;;;;;;;;;;10537135;28;20032;-46
2022/10/10 06:46:14;;;;;;;8.23;2.75;;;;;;;;;;10537043;28;20110;-48
2022/10/10 06:51:15;;;;;;;18.70;2.40;;;;;;;;;;10537619;28;20051;-47
2022/10/10 06:56:20;;;;;;;6.22;3.03;;;;;;;;;;10536683;28;20035;-47
2022/10/10 07:01:21;;;;;;;10.23;2.97;;;;;;;;;;10536380;28;20028;-47
2022/10/10 07:06:21;;;;;;;3.67;2.47;;;;;;;;;;10536224;28;20115;-47
2022/10/10 07:11:21;;;;;;;4.28;2.17;;;;;;;;;;10534625;28;20047;-43
2022/10/10 07:16:22;;;;;;;2.90;1.95;;;;;;;;;;10536426;28;20043;-44
2022/10/10 07:21:22;;;;;;;7.10;2.30;;;;;;;;;;10536228;28;20024;-44
2022/10/10 07:26:25;;;;;;;4.85;2.25;;;;;;;;;;10536085;28;20093;-46
2022/10/10 07:31:26;;;;;;;6.38;2.42;;;;;;;;;;10535087;28;20491;-47
2022/10/10 07:36:26;;;;;;;4.32;1.77;;;;;;;;;;10535187;28;20027;-48
2022/10/10 07:41:26;;;;;;;6.67;2.47;;;;;;;;;;10534537;28;20052;-48
2022/10/10 07:46:29;;;;;;;7.68;2.25;;;;;;;;;;10534544;28;20024;-47
2022/10/10 07:51:29;;;;;;;6.40;2.33;;;;;;;;;;10533784;28;20412;-48
2022/10/10 07:56:30;;;;;;;4.20;2.10;;;;;;;;;;10534550;28;20016;-47
2022/10/10 08:01:30;;;;;;;2.75;1.70;;;;;;;;;;10534024;28;20031;-47
2022/10/10 08:06:30;;;;;;;6.03;2.10;;;;;;;;;;10534183;28;20604;-45
2022/10/10 08:11:30;;;;;;;7.40;2.17;;;;;;;;;;10533526;28;20391;-48
2022/10/10 08:16:31;;;;;;;7.88;2.35;;;;;;;;;;10533406;28;20141;-48
2022/10/10 08:21:31;;;;;;;6.67;2.40;;;;;;;;;;10533161;28;20034;-45
2022/10/10 08:26:31;;;;;;;3.63;2.17;;;;;;;;;;10533847;28;20073;-49
2022/10/10 08:31:32;;;;;;;2.17;1.83;;;;;;;;;;10532949;28;20549;-47
2022/10/10 08:36:33;;;;;;;4.45;2.08;;;;;;;;;;10533678;28;20048;-48
2022/10/10 08:41:38;;;;;;;4.05;2.50;;;;;;;;;;10532954;28;20153;-49
2022/10/10 08:46:41;;;;;;;5.30;2.35;;;;;;;;;;10533385;28;20035;-48
2022/10/10 08:51:45;;;;;;;4.15;2.25;;;;;;;;;;10532617;28;20032;-45
2022/10/10 08:56:46;;;;;;;4.38;2.20;;;;;;;;;;10532371;28;20467;-47
2022/10/10 09:01:48;;;;;;;5.35;2.10;;;;;;;;;;10532355;28;20031;-50
2022/10/10 09:06:48;;;;;;;5.53;2.30;;;;;;;;;;10532034;28;20476;-45
2022/10/10 09:12:04;;;;;;;9.15;2.58;;;;;;;;;;10531778;28;20037;-50
2022/10/10 09:17:16;;;;;;;4.20;2.40;;;;;;;;;;10531841;28;20040;-46
2022/10/10 09:22:19;;;;;;;5.32;2.70;;;;;;;;;;10531862;28;20464;-44
2022/10/10 09:27:23;;;;;;;6.55;2.50;;;;;;;;;;10531865;28;20107;-43
2022/10/10 09:32:26;;;;;;;8.45;2.92;;;;;;;;;;10533537;28;20492;-51
2022/10/10 09:37:32;;;;;;;7.22;2.83;;;;;;;;;;10539751;28;20024;-49
2022/10/10 09:42:37;;;;;;;7.55;2.72;;;;;;;;;;10538951;28;20024;-48
2022/10/10 09:47:38;;;;;;;8.55;2.63;;;;;;;;;;10539159;28;20028;-47
2022/10/10 09:52:38;;;;;;;7.33;2.63;;;;;;;;;;10538631;28;20050;-44
2022/10/10 09:57:39;;;;;;;7.32;2.85;;;;;;;;;;10538677;28;20126;-44
2022/10/10 10:02:40;;;;;;;7.93;2.78;;;;;;;;;;10538332;28;20099;-45
2022/10/10 10:07:46;;;;;;;6.72;2.65;;;;;;;;;;10537766;28;20016;-49
2022/10/10 10:12:47;;;;;;;5.18;2.55;;;;;;;;;;10537387;28;20039;-48
2022/10/10 10:18:05;;;;;;;6.40;2.53;;;;;;;;;;10536670;28;20024;-46
2022/10/10 10:23:22;;;;;;;5.28;2.95;;;;;;;;;;10536956;28;20035;-51
2022/10/10 10:28:23;;;;;;;6.20;2.75;;;;;;;;;;10536805;28;20044;-48
2022/10/10 10:33:31;;;;;;;4.60;2.87;;;;;;;;;;10536979;28;20405;-46
2022/10/10 10:38:35;;;;;;;8.27;2.55;;;;;;;;;;10537352;28;20513;-46
2022/10/10 10:43:42;;;;;;;5.10;2.85;;;;;;;;;;10536584;28;20024;-44
2022/10/10 10:48:46;;;;;;;6.07;2.80;;;;;;;;;;10536934;28;20028;-46
2022/10/10 10:53:52;;;;;;;10.27;3.20;;;;;;;;;;10536926;28;20024;-47
2022/10/10 10:58:59;;;;;;;4.95;2.80;;;;;;;;;;10535846;28;20032;-46
2022/10/10 11:04:07;;;;;;;7.70;2.72;;;;;;;;;;10536062;28;20028;-45
2022/10/10 11:09:31;;;;;;;7.63;2.75;;;;;;;;;;10535413;28;20089;-45
2022/10/10 11:14:40;;;;;;;4.53;2.67;;;;;;;;;;10534332;28;20105;-44
2022/10/10 11:19:43;;;;;;;4.03;2.38;;;;;;;;;;10535226;28;20032;-45
2022/10/10 11:24:52;;;;;;;4.20;2.45;;;;;;;;;;10535251;28;20478;-45
2022/10/10 11:30:13;;;;;;;3.33;2.67;;;;;;;;;;10535037;28;20131;-46
2022/10/10 11:35:36;;;;;;;4.05;2.47;;;;;;;;;;10534964;28;20075;-49
2022/10/10 11:40:49;;;;;;;4.90;2.67;;;;;;;;;;10533040;28;20032;-47
2022/10/10 11:45:53;;;;;;;4.53;2.58;;;;;;;;;;10535170;28;20032;-49
2022/10/10 11:50:56;;;;;;;5.40;2.30;;;;;;;;;;10534592;28;20032;-46
2022/10/10 11:55:57;;;;;;;4.15;2.67;;;;;;;;;;10533454;28;20421;-47
2022/10/10 12:01:00;;;;;;;7.47;2.88;;;;;;;;;;10534139;28;20028;-47
2022/10/10 12:06:10;;;;;;;6.25;2.40;;;;;;;;;;10534064;28;20083;-49
2022/10/10 12:11:20;;;;;;;9.93;2.67;;;;;;;;;;10533793;28;20039;-47
2022/10/10 12:16:22;;;;;;;6.65;3.10;;;;;;;;;;10533296;28;20036;-47
2022/10/10 12:21:24;;;;;;;5.70;2.50;;;;;;;;;;10532467;28;20055;-44
2022/10/10 12:26:44;;;;;;;6.25;2.75;;;;;;;;;;10533542;28;20036;-45
2022/10/10 12:31:45;;;;;;;5.10;2.78;;;;;;;;;;10532528;28;20052;-46
2022/10/10 12:37:09;;;;;;;7.05;2.38;;;;;;;;;;10532545;28;20375;-45
2022/10/10 12:42:26;;;;;;;6.55;3.05;;;;;;;;;;10532081;28;20028;-46
2022/10/10 12:47:29;;;;;;;4.97;2.65;;;;;;;;;;10532262;28;20020;-49
2022/10/10 12:52:44;;;;;;;5.55;2.70;;;;;;;;;;10531961;28;20055;-44
2022/10/10 12:57:45;;;;;;;5.13;2.95;;;;;;;;;;10531788;28;20046;-44
2022/10/10 13:02:55;;;;;;;5.10;2.60;;;;;;;;;;10531615;28;20035;-49
2022/10/10 13:07:58;;;;;;;4.50;2.70;;;;;;;;;;10537652;28;20028;-44
2022/10/10 13:13:14;;;;;;;11.63;3.03;;;;;;;;;;10540573;28;20119;-46
2022/10/10 13:18:30;;;;;;;4.88;2.67;;;;;;;;;;10540200;28;20028;-48
2022/10/10 13:23:31;;;;;;;7.32;2.95;;;;;;;;;;10539754;28;20463;-45
2022/10/10 13:28:31;;;;;;;5.40;2.70;;;;;;;;;;10539621;28;20044;-44
2022/10/10 13:33:32;;;;;;;3.15;2.47;;;;;;;;;;10540530;28;20020;-44
2022/10/10 13:38:33;;;;;;;7.82;2.80;;;;;;;;;;10540292;28;20107;-43
2022/10/10 13:43:33;;;;;;;3.97;2.88;;;;;;;;;;10538716;28;20171;-44
2022/10/10 13:48:33;;;;;;;4.97;2.63;;;;;;;;;;10538744;28;20186;-43
2022/10/10 13:53:34;;;;;;;5.80;2.53;;;;;;;;;;10539058;28;20028;-43
2022/10/10 13:58:41;;;;;;;4.67;2.87;;;;;;;;;;10538385;28;20028;-44
2022/10/10 14:03:44;;;;;;;4.57;3.03;;;;;;;;;;10538390;28;20380;-44
2022/10/10 14:08:45;;;;;;;6.47;2.70;;;;;;;;;;10538473;28;20035;-45
2022/10/10 14:13:47;;;;;;;8.15;2.95;;;;;;;;;;10538319;28;20028;-44
2022/10/10 14:18:47;;;;;;;3.78;2.70;;;;;;;;;;10536370;28;20016;-44
2022/10/10 14:23:48;;;;;;;6.33;2.83;;;;;;;;;;10538384;28;20020;-43
2022/10/10 14:28:48;;;;;;;6.32;2.80;;;;;;;;;;10537365;28;20076;-44
2022/10/10 14:33:50;;;;;;;3.05;2.30;;;;;;;;;;10537839;28;20024;-44
2022/10/10 14:38:50;;;;;;;7.28;2.40;;;;;;;;;;10537230;28;20281;-44
2022/10/10 14:43:50;;;;;;;5.93;2.83;;;;;;;;;;10536866;28;20531;-46
2022/10/10 14:48:50;;;;;;;6.28;2.80;;;;;;;;;;10537437;28;20384;-44
2022/10/10 14:53:51;;;;;;;3.53;2.40;;;;;;;;;;10536618;28;20058;-44
2022/10/10 14:58:51;;;;;;;7.63;2.30;;;;;;;;;;10536649;28;20041;-44
2022/10/10 15:03:51;;;;;;;3.58;2.45;;;;;;;;;;10536401;28;20061;-44
2022/10/10 15:08:51;;;;;;;3.80;2.80;;;;;;;;;;10536096;28;20020;-44
2022/10/10 15:13:52;;;;;;;3.65;2.33;;;;;;;;;;10535882;28;20051;-49
2022/10/10 15:18:52;;;;;;;5.10;2.63;;;;;;;;;;10535869;28;20024;-46
2022/10/10 15:23:53;;;;;;;2.65;2.40;;;;;;;;;;10536787;28;20504;-46
2022/10/10 15:28:53;;;;;;;4.70;2.70;;;;;;;;;;10534669;28;20133;-48
2022/10/10 15:33:54;;;;;;;5.25;2.33;;;;;;;;;;10535196;28;20028;-47
2022/10/10 15:38:54;;;;;;;3.97;2.38;;;;;;;;;;10535576;28;20416;-47
2022/10/10 15:43:55;;;;;;;3.27;2.20;;;;;;;;;;10535183;28;20039;-48
2022/10/10 15:48:59;;;;;;;3.77;2.83;;;;;;;;;;10534633;28;20032;-46
2022/10/10 15:53:59;;;;;;;6.68;2.83;;;;;;;;;;10534363;28;20031;-46
2022/10/10 15:59:00;;;;;;;6.07;2.58;;;;;;;;;;10533967;28;20035;-51
2022/10/10 16:04:02;;;;;;;5.32;2.22;;;;;;;;;;10533458;28;20043;-48
2022/10/10 16:09:02;;;;;;;3.08;2.03;;;;;;;;;;10532904;28;20375;-46
2022/10/10 16:14:02;;;;;;;4.57;2.23;;;;;;;;;;10533384;28;20024;-48
2022/10/10 16:19:03;;;;;;;4.35;2.47;;;;;;;;;;10532978;28;20429;-48
2022/10/10 16:24:03;;;;;;;2.77;2.13;;;;;;;;;;10526139;28;20016;-49
2022/10/10 16:29:04;;;;;;;3.73;2.57;;;;;;;;;;10532034;28;20131;-46
2022/10/10 16:34:05;;;;;;;3.28;2.03;;;;;;;;;;10532359;28;20939;-49
2022/10/10 16:39:06;;;;;;;4.10;2.20;;;;;;;;;;10531964;28;20103;-46
2022/10/10 16:44:06;;;;;;;3.85;2.20;;;;;;;;;;10532575;28;20024;-47
2022/10/10 16:49:07;;;;;;;2.53;2.00;;;;;;;;;;10532905;28;20024;-49
2022/10/10 16:54:07;;;;;;;3.88;2.40;;;;;;;;;;10531712;28;20040;-47
2022/10/10 16:59:07;;;;;;;2.85;2.22;;;;;;;;;;10531619;28;20032;-44
2022/10/10 17:04:08;;;;;;;4.22;2.10;;;;;;;;;;10530920;28;20035;-45
2022/10/10 17:09:10;;;;;;;6.30;2.58;;;;;;;;;;10531923;28;20124;-44
2022/10/10 17:14:11;;;;;;;5.05;2.30;;;;;;;;;;10534794;28;20036;-46
2022/10/10 17:19:11;;;;;;;3.30;2.15;;;;;;;;;;10538938;28;20039;-46
2022/10/10 17:24:12;;;;;;;3.20;2.00;;;;;;;;;;10538600;28;20438;-44
2022/10/10 17:29:13;;;;;;;3.85;2.05;;;;;;;;;;10538288;28;20059;-44
2022/10/10 17:34:14;;;;;;;4.00;2.20;;;;;;;;;;10538716;28;20028;-43
2022/10/10 17:39:15;;;;;;;9.63;3.22;;;;;;;;;;10538706;28;20032;-43
2022/10/10 17:44:16;;;;;;;3.63;2.45;;;;;;;;;;10538396;28;20032;-45
2022/10/10 17:49:18;;;;;;;7.43;2.40;;;;;;;;;;10538318;28;20028;-43
2022/10/10 17:54:19;;;;;;;8.50;2.85;;;;;;;;;;10541843;28;20034;-44
2022/10/10 17:59:20;;;;;;;5.90;2.75;;;;;;;;;;10545690;28;20032;-44
2022/10/10 18:04:20;;;;;;;4.22;2.15;;;;;;;;;;10538710;28;20028;-44
2022/10/10 18:09:20;;;;;;;5.90;3.08;;;;;;;;;;10537565;28;20059;-45
2022/10/10 18:14:21;;;;;;;6.68;2.28;;;;;;;;;;10536163;28;20472;-49
2022/10/10 18:19:21;;;;;;;5.22;2.80;;;;;;;;;;10537338;28;20649;-46
2022/10/10 18:24:21;;;;;;;3.03;2.15;;;;;;;;;;10534766;28;20086;-44
2022/10/10 18:29:21;;;;;;;4.22;2.55;;;;;;;;;;10534745;28;20063;-44
2022/10/10 18:34:22;;;;;;;9.33;2.83;;;;;;;;;;10535104;28;20055;-43
2022/10/10 18:39:22;;;;;;;6.65;3.22;;;;;;;;;;10536178;28;20033;-47
2022/10/10 18:44:22;;;;;;;7.53;3.15;;;;;;;;;;10534458;28;20043;-44
2022/10/10 18:49:23;;;;;;;6.90;2.92;;;;;;;;;;10536367;28;20140;-44
2022/10/10 18:54:26;;;;;;;4.70;2.92;;;;;;;;;;10535780;28;20541;-47
2022/10/10 18:59:26;;;;;;;6.75;2.85;;;;;;;;;;10536255;28;20032;-46
2022/10/10 19:04:27;;;;;;;7.43;2.90;;;;;;;;;;10536217;28;20403;-48
2022/10/10 19:09:27;;;;;;;5.35;2.58;;;;;;;;;;10536133;28;20030;-45
2022/10/10 19:14:27;;;;;;;5.80;2.70;;;;;;;;;;10535746;28;20027;-46
2022/10/10 19:19:27;;;;;;;7.45;2.70;;;;;;;;;;10536077;28;20113;-44
2022/10/10 19:24:28;;;;;;;8.50;3.13;;;;;;;;;;10534830;28;20027;-50
2022/10/10 19:29:28;;;;;;;21.27;3.53;;;;;;;;;;10533644;28;20052;-45
2022/10/10 19:34:28;;;;;;;14.90;3.78;;;;;;;;;;10533301;28;20524;-48
2022/10/10 19:39:29;;;;;;;11.90;3.70;;;;;;;;;;10533620;28;20032;-49
2022/10/10 19:44:29;;;;;;;13.87;4.13;;;;;;;;;;10533860;28;20111;-44
2022/10/10 19:49:29;;;;;;;17.20;4.20;;;;;;;;;;10534043;28;21004;-44
2022/10/10 19:54:30;;;;;;;17.00;3.58;;;;;;;;;;10532891;28;20032;-45
2022/10/10 19:59:30;;;;;;;8.60;3.57;;;;;;;;;;10533888;28;20016;-43
2022/10/10 20:04:30;;;;;;;11.53;3.30;;;;;;;;;;10534097;28;20467;-44
2022/10/10 20:09:31;;;;;;;9.05;3.05;;;;;;;;;;10529872;28;20481;-44
2022/10/10 20:14:31;;;;;;;9.93;3.50;;;;;;;;;;10531711;28;20451;-47
2022/10/10 20:19:31;;;;;;;7.93;3.67;;;;;;;;;;10532300;28;20389;-46
2022/10/10 20:24:31;;;;;;;8.60;3.50;;;;;;;;;;10533003;28;20061;-47
2022/10/10 20:29:32;;;;;;;13.95;2.90;;;;;;;;;;10532018;28;20052;-44
2022/10/10 20:34:32;;;;;;;9.43;3.40;;;;;;;;;;10532161;28;20471;-44
2022/10/10 20:39:32;;;;;;;10.53;3.37;;;;;;;;;;10532563;28;20032;-43
2022/10/10 20:44:33;;;;;;;6.57;3.37;;;;;;;;;;10532110;28;20028;-43
2022/10/10 20:49:33;;;;;;;10.33;3.23;;;;;;;;;;10532857;28;20038;-49
2022/10/10 20:54:35;;;;;;;7.78;3.35;;;;;;;;;;10532352;28;20031;-50
2022/10/10 20:59:35;;;;;;;9.80;3.47;;;;;;;;;;10532313;28;20032;-46
2022/10/10 21:04:35;;;;;;;5.75;3.53;;;;;;;;;;10531822;28;20024;-48
2022/10/10 21:09:36;;;;;;;6.87;3.03;;;;;;;;;;10532194;28;20127;-49
2022/10/10 21:14:36;;;;;;;10.88;3.25;;;;;;;;;;10531608;28;21068;-52
2022/10/10 21:19:36;;;;;;;5.93;3.25;;;;;;;;;;10531571;28;20054;-47
2022/10/10 21:24:37;;;;;;;7.38;3.03;;;;;;;;;;10531851;28;20023;-49
2022/10/10 21:29:37;;;;;;;9.07;2.60;;;;;;;;;;10534463;28;20046;-46
2022/10/10 21:34:37;;;;;;;5.88;3.22;;;;;;;;;;10538734;28;20023;-47
2022/10/10 21:39:37;;;;;;;27.08;3.53;;;;;;;;;;10539217;28;20467;-45
2022/10/10 21:44:38;;;;;;;5.57;2.40;;;;;;;;;;10538587;28;20383;-48
2022/10/10 21:49:38;;;;;;;6.40;3.08;;;;;;;;;;10537101;28;20046;-51
2022/10/10 21:54:38;;;;;;;11.70;3.47;;;;;;;;;;10538496;28;20467;-46
2022/10/10 21:59:39;;;;;;;10.98;3.28;;;;;;;;;;10538542;28;20436;-46
2022/10/10 22:04:39;;;;;;;16.33;3.53;;;;;;;;;;10537135;28;20475;-45
2022/10/10 22:09:39;;;;;;;9.70;2.93;;;;;;;;;;10538913;28;20429;-46
2022/10/10 22:14:40;;;;;;;8.25;2.97;;;;;;;;;;10538219;28;20337;-59
2022/10/10 22:19:40;;;;;;;11.50;2.45;;;;;;;;;;10538200;28;20384;-46
2022/10/10 22:24:41;;;;;;;10.40;2.85;;;;;;;;;;10538563;28;20085;-56
2022/10/10 22:29:41;;;;;;;6.70;2.90;;;;;;;;;;10537412;28;20044;-45
2022/10/10 22:34:41;;;;;;;8.13;3.10;;;;;;;;;;10538356;28;20028;-46
2022/10/10 22:39:41;;;;;;;9.30;3.22;;;;;;;;;;10537814;28;20085;-45
2022/10/10 22:44:42;;;;;;;15.77;2.90;;;;;;;;;;10537919;28;20039;-59
2022/10/10 22:49:42;;;;;;;12.93;2.80;;;;;;;;;;10537831;28;20028;-59
2022/10/10 22:54:42;;;;;;;5.35;2.92;;;;;;;;;;10538064;28;20032;-56
2022/10/10 22:59:43;;;;;;;12.15;3.20;;;;;;;;;;10537476;28;20290;-44
2022/10/10 23:04:43;;;;;;;5.28;2.55;;;;;;;;;;10537199;28;20024;-45
2022/10/10 23:09:43;;;;;;;9.37;3.03;;;;;;;;;;10537096;28;20193;-44
2022/10/10 23:14:43;;;;;;;6.13;3.13;;;;;;;;;;10536452;28;20027;-48
2022/10/10 23:19:44;;;;;;;5.05;2.60;;;;;;;;;;10535934;28;20035;-44
2022/10/10 23:24:44;;;;;;;5.47;1.93;;;;;;;;;;10536425;28;20028;-44
2022/10/10 23:29:44;;;;;;;5.45;2.92;;;;;;;;;;10535553;28;20067;-45
2022/10/10 23:34:44;;;;;;;6.30;3.00;;;;;;;;;;10535526;28;20059;-44
2022/10/10 23:39:45;;;;;;;5.63;2.40;;;;;;;;;;10535837;28;20029;-45
2022/10/10 23:44:45;;;;;;;5.63;2.63;;;;;;;;;;10535602;28;20039;-45
2022/10/10 23:49:45;;;;;;;4.50;2.10;;;;;;;;;;10534930;28;20044;-44
2022/10/10 23:54:46;;;;;;;7.65;2.83;;;;;;;;;;10534971;28;20062;-45
2022/10/10 23:59:46;;;;;;;4.90;2.40;;;;;;;;;;10534602;28;20486;-44
